Terminal Aerodrome Forecast
Issued by NWS

Home | Current Version | Previous Version | Text Only | Print | Product List | Glossary Off
Versions: 1 2 3 4 5 6 7 8 9 10 11 12 13 14 15 16 17 18 19 20 21 22 23 24 25 26 27 28 29 30 31 32 33 34 35 36 37 38 39 40 41 42 43 44 45 46 47 48 49 50

000
FTUS43 KGRB 181300 AAA
TAFRHI
TAF AMD
KRHI 181331Z 1814/1912 13005KT 3SM BR OVC004
     FM181600 17007KT P6SM BKN015
     FM181800 17007KT P6SM VCTS BKN020CB
      TEMPO 1820/1824 3SM -SHRA BKN012
     FM190000 VRB03KT 5SM -SHRA BKN018
     FM190600 VRB03KT 4SM -SHRA BR BKN005=

USA.gov is the U.S. government's official web portal to all federal, state and local government web resources and services.